sensor_id;sensor_type;location;lat;lon;timestamp;P1;durP1;ratioP1;P2;durP2;ratioP2
42146;SDS011;27815;43.410;11.852;2022-10-22T00:02:40;10.77;;;6.70;;
42146;SDS011;27815;43.410;11.852;2022-10-22T00:06:47;8.35;;;6.10;;
42146;SDS011;27815;43.410;11.852;2022-10-22T00:10:56;11.77;;;8.57;;
42146;SDS011;27815;43.410;11.852;2022-10-22T00:15:06;10.82;;;8.80;;
42146;SDS011;27815;43.410;11.852;2022-10-22T00:19:14;10.52;;;7.30;;
42146;SDS011;27815;43.410;11.852;2022-10-22T00:23:24;8.73;;;7.18;;
42146;SDS011;27815;43.410;11.852;2022-10-22T00:27:30;10.63;;;7.20;;
42146;SDS011;27815;43.410;11.852;2022-10-22T00:31:36;10.18;;;7.30;;
42146;SDS011;27815;43.410;11.852;2022-10-22T00:35:42;8.20;;;6.88;;
42146;SDS011;27815;43.410;11.852;2022-10-22T00:39:53;9.30;;;8.35;;
42146;SDS011;27815;43.410;11.852;2022-10-22T00:43:58;9.43;;;7.03;;
42146;SDS011;27815;43.410;11.852;2022-10-22T00:53:15;10.65;;;6.68;;
42146;SDS011;27815;43.410;11.852;2022-10-22T00:57:30;9.13;;;6.45;;
42146;SDS011;27815;43.410;11.852;2022-10-22T01:01:37;9.40;;;8.50;;
42146;SDS011;27815;43.410;11.852;2022-10-22T01:05:49;9.15;;;7.45;;
42146;SDS011;27815;43.410;11.852;2022-10-22T01:28:48;9.40;;;8.45;;
42146;SDS011;27815;43.410;11.852;2022-10-22T01:33:14;13.45;;;12.35;;
42146;SDS011;27815;43.410;11.852;2022-10-22T01:37:23;12.05;;;11.05;;
42146;SDS011;27815;43.410;11.852;2022-10-22T01:41:31;12.45;;;11.45;;
42146;SDS011;27815;43.410;11.852;2022-10-22T01:45:39;12.00;;;10.85;;
42146;SDS011;27815;43.410;11.852;2022-10-22T01:58:34;10.27;;;8.73;;
42146;SDS011;27815;43.410;11.852;2022-10-22T02:07:24;13.55;;;12.52;;
42146;SDS011;27815;43.410;11.852;2022-10-22T02:11:32;14.45;;;13.48;;
42146;SDS011;27815;43.410;11.852;2022-10-22T02:15:36;14.88;;;13.77;;
42146;SDS011;27815;43.410;11.852;2022-10-22T02:19:47;14.82;;;13.57;;
42146;SDS011;27815;43.410;11.852;2022-10-22T02:23:55;9.80;;;8.90;;
42146;SDS011;27815;43.410;11.852;2022-10-22T02:32:31;9.35;;;8.45;;
42146;SDS011;27815;43.410;11.852;2022-10-22T02:36:55;11.50;;;10.45;;
42146;SDS011;27815;43.410;11.852;2022-10-22T02:41:05;11.20;;;9.73;;
42146;SDS011;27815;43.410;11.852;2022-10-22T02:45:15;12.20;;;11.05;;
42146;SDS011;27815;43.410;11.852;2022-10-22T02:49:26;13.48;;;12.27;;
42146;SDS011;27815;43.410;11.852;2022-10-22T02:53:41;12.57;;;11.48;;
42146;SDS011;27815;43.410;11.852;2022-10-22T02:57:51;11.32;;;10.05;;
42146;SDS011;27815;43.410;11.852;2022-10-22T03:02:06;12.85;;;11.65;;
42146;SDS011;27815;43.410;11.852;2022-10-22T03:06:10;16.45;;;15.35;;
42146;SDS011;27815;43.410;11.852;2022-10-22T03:10:15;12.27;;;11.23;;
42146;SDS011;27815;43.410;11.852;2022-10-22T03:14:18;11.68;;;7.80;;
42146;SDS011;27815;43.410;11.852;2022-10-22T03:22:53;10.77;;;8.80;;
42146;SDS011;27815;43.410;11.852;2022-10-22T03:26:57;12.85;;;11.75;;
42146;SDS011;27815;43.410;11.852;2022-10-22T03:31:00;9.50;;;8.60;;
42146;SDS011;27815;43.410;11.852;2022-10-22T03:35:04;13.45;;;12.35;;
42146;SDS011;27815;43.410;11.852;2022-10-22T03:39:09;13.32;;;12.48;;
42146;SDS011;27815;43.410;11.852;2022-10-22T03:43:16;11.70;;;10.77;;
42146;SDS011;27815;43.410;11.852;2022-10-22T03:47:22;11.43;;;9.05;;
42146;SDS011;27815;43.410;11.852;2022-10-22T03:51:28;14.65;;;13.55;;
42146;SDS011;27815;43.410;11.852;2022-10-22T03:55:40;17.38;;;16.13;;
42146;SDS011;27815;43.410;11.852;2022-10-22T03:59:44;13.52;;;12.32;;
42146;SDS011;27815;43.410;11.852;2022-10-22T04:03:51;16.52;;;15.45;;
42146;SDS011;27815;43.410;11.852;2022-10-22T04:07:56;13.93;;;12.63;;
42146;SDS011;27815;43.410;11.852;2022-10-22T04:12:00;16.27;;;14.85;;
42146;SDS011;27815;43.410;11.852;2022-10-22T04:16:11;17.55;;;16.33;;
42146;SDS011;27815;43.410;11.852;2022-10-22T04:20:17;15.38;;;14.18;;
42146;SDS011;27815;43.410;11.852;2022-10-22T04:24:23;16.05;;;14.70;;
42146;SDS011;27815;43.410;11.852;2022-10-22T04:28:29;18.35;;;17.15;;
42146;SDS011;27815;43.410;11.852;2022-10-22T04:32:33;16.35;;;14.95;;
42146;SDS011;27815;43.410;11.852;2022-10-22T04:36:38;14.55;;;13.32;;
42146;SDS011;27815;43.410;11.852;2022-10-22T04:40:42;15.25;;;13.90;;
42146;SDS011;27815;43.410;11.852;2022-10-22T04:44:48;17.30;;;13.10;;
42146;SDS011;27815;43.410;11.852;2022-10-22T04:48:51;12.77;;;11.70;;
42146;SDS011;27815;43.410;11.852;2022-10-22T04:53:08;15.50;;;14.20;;
42146;SDS011;27815;43.410;11.852;2022-10-22T04:57:14;14.98;;;13.82;;
42146;SDS011;27815;43.410;11.852;2022-10-22T05:01:20;13.65;;;12.57;;
42146;SDS011;27815;43.410;11.852;2022-10-22T05:05:26;15.55;;;14.35;;
42146;SDS011;27815;43.410;11.852;2022-10-22T05:09:34;12.73;;;11.73;;
42146;SDS011;27815;43.410;11.852;2022-10-22T05:13:38;14.15;;;12.82;;
42146;SDS011;27815;43.410;11.852;2022-10-22T05:17:41;14.63;;;13.35;;
42146;SDS011;27815;43.410;11.852;2022-10-22T05:21:51;13.55;;;12.32;;
42146;SDS011;27815;43.410;11.852;2022-10-22T05:26:00;13.85;;;12.35;;
42146;SDS011;27815;43.410;11.852;2022-10-22T05:30:05;14.48;;;13.15;;
42146;SDS011;27815;43.410;11.852;2022-10-22T05:34:08;15.30;;;14.00;;
42146;SDS011;27815;43.410;11.852;2022-10-22T05:38:20;14.57;;;13.38;;
42146;SDS011;27815;43.410;11.852;2022-10-22T05:42:36;14.57;;;13.27;;
42146;SDS011;27815;43.410;11.852;2022-10-22T05:46:44;14.07;;;12.90;;
42146;SDS011;27815;43.410;11.852;2022-10-22T05:50:48;14.13;;;12.95;;
42146;SDS011;27815;43.410;11.852;2022-10-22T05:54:55;14.15;;;13.02;;
42146;SDS011;27815;43.410;11.852;2022-10-22T05:59:01;14.70;;;13.43;;
42146;SDS011;27815;43.410;11.852;2022-10-22T06:03:05;13.90;;;12.65;;
42146;SDS011;27815;43.410;11.852;2022-10-22T06:07:12;13.30;;;12.40;;
42146;SDS011;27815;43.410;11.852;2022-10-22T06:11:22;12.52;;;11.43;;
42146;SDS011;27815;43.410;11.852;2022-10-22T06:15:26;15.35;;;14.15;;
42146;SDS011;27815;43.410;11.852;2022-10-22T06:19:32;18.33;;;16.95;;
42146;SDS011;27815;43.410;11.852;2022-10-22T06:23:37;14.35;;;13.35;;
42146;SDS011;27815;43.410;11.852;2022-10-22T06:27:41;15.32;;;13.95;;
42146;SDS011;27815;43.410;11.852;2022-10-22T06:31:48;15.18;;;14.07;;
42146;SDS011;27815;43.410;11.852;2022-10-22T06:36:02;19.88;;;18.38;;
42146;SDS011;27815;43.410;11.852;2022-10-22T06:40:09;19.55;;;18.15;;
42146;SDS011;27815;43.410;11.852;2022-10-22T06:44:15;15.85;;;14.40;;
42146;SDS011;27815;43.410;11.852;2022-10-22T06:48:22;15.73;;;14.57;;
42146;SDS011;27815;43.410;11.852;2022-10-22T06:52:34;20.23;;;18.50;;
42146;SDS011;27815;43.410;11.852;2022-10-22T06:56:46;18.77;;;17.40;;
42146;SDS011;27815;43.410;11.852;2022-10-22T07:01:17;18.50;;;17.00;;
42146;SDS011;27815;43.410;11.852;2022-10-22T07:05:37;16.70;;;15.63;;
42146;SDS011;27815;43.410;11.852;2022-10-22T07:09:56;13.80;;;11.88;;
42146;SDS011;27815;43.410;11.852;2022-10-22T07:14:20;18.63;;;17.05;;
42146;SDS011;27815;43.410;11.852;2022-10-22T07:22:51;11.73;;;10.75;;
42146;SDS011;27815;43.410;11.852;2022-10-22T07:27:07;18.20;;;16.70;;
42146;SDS011;27815;43.410;11.852;2022-10-22T07:31:15;16.35;;;15.13;;
42146;SDS011;27815;43.410;11.852;2022-10-22T07:35:19;19.20;;;17.70;;
42146;SDS011;27815;43.410;11.852;2022-10-22T07:39:23;19.30;;;18.00;;
42146;SDS011;27815;43.410;11.852;2022-10-22T07:43:27;19.63;;;17.70;;
42146;SDS011;27815;43.410;11.852;2022-10-22T07:47:32;17.85;;;16.35;;
42146;SDS011;27815;43.410;11.852;2022-10-22T07:51:36;13.50;;;12.38;;
42146;SDS011;27815;43.410;11.852;2022-10-22T07:55:41;20.85;;;19.35;;
42146;SDS011;27815;43.410;11.852;2022-10-22T07:59:46;16.63;;;15.15;;
42146;SDS011;27815;43.410;11.852;2022-10-22T08:03:50;21.30;;;19.73;;
42146;SDS011;27815;43.410;11.852;2022-10-22T08:07:55;17.95;;;16.48;;
42146;SDS011;27815;43.410;11.852;2022-10-22T08:12:03;14.35;;;13.02;;
42146;SDS011;27815;43.410;11.852;2022-10-22T08:16:11;9.50;;;8.52;;
42146;SDS011;27815;43.410;11.852;2022-10-22T08:20:14;16.63;;;15.38;;
42146;SDS011;27815;43.410;11.852;2022-10-22T08:24:22;12.23;;;11.07;;
42146;SDS011;27815;43.410;11.852;2022-10-22T08:28:31;9.75;;;8.77;;
42146;SDS011;27815;43.410;11.852;2022-10-22T08:32:38;11.98;;;10.90;;
42146;SDS011;27815;43.410;11.852;2022-10-22T08:36:42;13.23;;;11.93;;
42146;SDS011;27815;43.410;11.852;2022-10-22T08:40:50;15.77;;;14.43;;
42146;SDS011;27815;43.410;11.852;2022-10-22T08:45:05;13.65;;;11.45;;
42146;SDS011;27815;43.410;11.852;2022-10-22T08:49:29;12.95;;;11.85;;
42146;SDS011;27815;43.410;11.852;2022-10-22T08:54:05;11.55;;;10.65;;
42146;SDS011;27815;43.410;11.852;2022-10-22T08:58:41;10.75;;;9.65;;
42146;SDS011;27815;43.410;11.852;2022-10-22T09:03:18;10.10;;;9.20;;
42146;SDS011;27815;43.410;11.852;2022-10-22T09:08:00;12.98;;;10.75;;
42146;SDS011;27815;43.410;11.852;2022-10-22T09:12:06;10.93;;;8.68;;
42146;SDS011;27815;43.410;11.852;2022-10-22T09:25:34;10.63;;;9.63;;
42146;SDS011;27815;43.410;11.852;2022-10-22T09:34:05;12.32;;;8.48;;
42146;SDS011;27815;43.410;11.852;2022-10-22T09:38:13;10.43;;;8.68;;
42146;SDS011;27815;43.410;11.852;2022-10-22T09:42:54;11.25;;;7.57;;
42146;SDS011;27815;43.410;11.852;2022-10-22T09:48:29;10.48;;;7.47;;
42146;SDS011;27815;43.410;11.852;2022-10-22T09:52:43;7.50;;;6.45;;
42146;SDS011;27815;43.410;11.852;2022-10-22T09:57:14;14.48;;;8.75;;
42146;SDS011;27815;43.410;11.852;2022-10-22T10:01:27;9.07;;;7.05;;
42146;SDS011;27815;43.410;11.852;2022-10-22T10:05:48;12.90;;;7.35;;
42146;SDS011;27815;43.410;11.852;2022-10-22T10:34:26;10.98;;;7.63;;
42146;SDS011;27815;43.410;11.852;2022-10-22T10:39:17;9.52;;;7.93;;
42146;SDS011;27815;43.410;11.852;2022-10-22T10:49:08;9.52;;;7.15;;
42146;SDS011;27815;43.410;11.852;2022-10-22T10:53:16;12.75;;;7.10;;
42146;SDS011;27815;43.410;11.852;2022-10-22T11:08:34;10.40;;;7.57;;
42146;SDS011;27815;43.410;11.852;2022-10-22T11:13:00;8.65;;;5.28;;
42146;SDS011;27815;43.410;11.852;2022-10-22T11:17:31;12.70;;;7.45;;
42146;SDS011;27815;43.410;11.852;2022-10-22T11:21:48;12.95;;;7.28;;
42146;SDS011;27815;43.410;11.852;2022-10-22T11:26:06;11.77;;;7.18;;
42146;SDS011;27815;43.410;11.852;2022-10-22T11:30:47;16.35;;;6.78;;
42146;SDS011;27815;43.410;11.852;2022-10-22T11:35:22;12.55;;;6.47;;
42146;SDS011;27815;43.410;11.852;2022-10-22T11:39:42;10.02;;;6.03;;
42146;SDS011;27815;43.410;11.852;2022-10-22T11:45:00;11.52;;;6.72;;
42146;SDS011;27815;43.410;11.852;2022-10-22T12:06:59;13.93;;;8.23;;
42146;SDS011;27815;43.410;11.852;2022-10-22T12:16:02;10.82;;;6.75;;
42146;SDS011;27815;43.410;11.852;2022-10-22T12:24:58;13.65;;;7.75;;
42146;SDS011;27815;43.410;11.852;2022-10-22T12:29:56;12.98;;;7.07;;
42146;SDS011;27815;43.410;11.852;2022-10-22T12:34:30;10.55;;;6.13;;
42146;SDS011;27815;43.410;11.852;2022-10-22T12:39:16;14.70;;;6.53;;
42146;SDS011;27815;43.410;11.852;2022-10-22T13:01:12;11.45;;;5.55;;
42146;SDS011;27815;43.410;11.852;2022-10-22T13:13:27;16.33;;;5.40;;
42146;SDS011;27815;43.410;11.852;2022-10-22T14:16:20;12.40;;;5.22;;
42146;SDS011;27815;43.410;11.852;2022-10-22T14:21:48;15.95;;;5.95;;
42146;SDS011;27815;43.410;11.852;2022-10-22T14:27:03;10.95;;;5.07;;
42146;SDS011;27815;43.410;11.852;2022-10-22T14:31:24;10.68;;;5.60;;
42146;SDS011;27815;43.410;11.852;2022-10-22T14:35:44;16.05;;;5.97;;
42146;SDS011;27815;43.410;11.852;2022-10-22T14:40:35;16.83;;;5.45;;
42146;SDS011;27815;43.410;11.852;2022-10-22T14:44:58;11.82;;;6.13;;
42146;SDS011;27815;43.410;11.852;2022-10-22T14:54:30;14.35;;;6.50;;
42146;SDS011;27815;43.410;11.852;2022-10-22T14:58:54;11.30;;;5.35;;
42146;SDS011;27815;43.410;11.852;2022-10-22T15:03:01;14.65;;;5.50;;
42146;SDS011;27815;43.410;11.852;2022-10-22T15:07:30;15.15;;;6.88;;
42146;SDS011;27815;43.410;11.852;2022-10-22T15:12:14;14.10;;;6.38;;
42146;SDS011;27815;43.410;11.852;2022-10-22T15:16:31;11.45;;;6.22;;
42146;SDS011;27815;43.410;11.852;2022-10-22T15:20:39;15.43;;;6.50;;
42146;SDS011;27815;43.410;11.852;2022-10-22T15:24:48;10.90;;;5.70;;
42146;SDS011;27815;43.410;11.852;2022-10-22T15:29:03;14.80;;;6.07;;
42146;SDS011;27815;43.410;11.852;2022-10-22T15:33:07;12.35;;;6.07;;
42146;SDS011;27815;43.410;11.852;2022-10-22T15:37:11;12.15;;;5.93;;
42146;SDS011;27815;43.410;11.852;2022-10-22T15:47:02;19.90;;;8.38;;
42146;SDS011;27815;43.410;11.852;2022-10-22T15:51:38;13.45;;;7.80;;
42146;SDS011;27815;43.410;11.852;2022-10-22T15:56:04;14.55;;;7.82;;
42146;SDS011;27815;43.410;11.852;2022-10-22T16:00:11;11.82;;;7.82;;
42146;SDS011;27815;43.410;11.852;2022-10-22T16:04:20;13.43;;;9.30;;
42146;SDS011;27815;43.410;11.852;2022-10-22T16:09:19;20.17;;;9.45;;
42146;SDS011;27815;43.410;11.852;2022-10-22T16:18:58;17.75;;;10.57;;
42146;SDS011;27815;43.410;11.852;2022-10-22T16:23:02;13.80;;;10.02;;
42146;SDS011;27815;43.410;11.852;2022-10-22T16:36:40;12.93;;;9.02;;
42146;SDS011;27815;43.410;11.852;2022-10-22T16:41:50;16.05;;;9.88;;
42146;SDS011;27815;43.410;11.852;2022-10-22T16:45:55;15.02;;;10.80;;
42146;SDS011;27815;43.410;11.852;2022-10-22T16:50:08;11.38;;;10.25;;
42146;SDS011;27815;43.410;11.852;2022-10-22T16:54:13;13.25;;;10.85;;
42146;SDS011;27815;43.410;11.852;2022-10-22T16:58:17;14.80;;;9.82;;
42146;SDS011;27815;43.410;11.852;2022-10-22T17:02:30;15.88;;;10.48;;
42146;SDS011;27815;43.410;11.852;2022-10-22T17:06:33;19.80;;;11.20;;
42146;SDS011;27815;43.410;11.852;2022-10-22T17:10:36;14.55;;;10.60;;
42146;SDS011;27815;43.410;11.852;2022-10-22T17:14:43;18.00;;;11.60;;
42146;SDS011;27815;43.410;11.852;2022-10-22T17:18:48;14.35;;;11.00;;
42146;SDS011;27815;43.410;11.852;2022-10-22T17:22:51;17.05;;;11.10;;
42146;SDS011;27815;43.410;11.852;2022-10-22T17:26:56;15.88;;;10.15;;
42146;SDS011;27815;43.410;11.852;2022-10-22T17:31:00;19.70;;;10.70;;
42146;SDS011;27815;43.410;11.852;2022-10-22T17:35:06;10.90;;;9.55;;
42146;SDS011;27815;43.410;11.852;2022-10-22T17:39:10;15.52;;;10.35;;
42146;SDS011;27815;43.410;11.852;2022-10-22T17:43:19;15.68;;;10.77;;
42146;SDS011;27815;43.410;11.852;2022-10-22T17:47:23;15.00;;;10.65;;
42146;SDS011;27815;43.410;11.852;2022-10-22T17:51:28;13.45;;;10.90;;
42146;SDS011;27815;43.410;11.852;2022-10-22T17:55:36;16.55;;;12.10;;
42146;SDS011;27815;43.410;11.852;2022-10-22T18:04:01;14.07;;;11.50;;
42146;SDS011;27815;43.410;11.852;2022-10-22T18:08:08;14.93;;;11.18;;
42146;SDS011;27815;43.410;11.852;2022-10-22T18:12:34;12.80;;;10.57;;
42146;SDS011;27815;43.410;11.852;2022-10-22T18:16:59;15.77;;;11.48;;
42146;SDS011;27815;43.410;11.852;2022-10-22T18:21:05;18.13;;;11.52;;
42146;SDS011;27815;43.410;11.852;2022-10-22T18:25:38;17.38;;;11.45;;
42146;SDS011;27815;43.410;11.852;2022-10-22T18:30:18;13.32;;;11.38;;
42146;SDS011;27815;43.410;11.852;2022-10-22T18:35:45;16.80;;;11.40;;
42146;SDS011;27815;43.410;11.852;2022-10-22T18:40:55;11.98;;;10.55;;
42146;SDS011;27815;43.410;11.852;2022-10-22T18:45:21;15.35;;;11.18;;
42146;SDS011;27815;43.410;11.852;2022-10-22T18:49:34;13.00;;;11.48;;
42146;SDS011;27815;43.410;11.852;2022-10-22T18:54:27;13.90;;;11.57;;
42146;SDS011;27815;43.410;11.852;2022-10-22T19:00:28;15.98;;;11.18;;
42146;SDS011;27815;43.410;11.852;2022-10-22T19:06:52;18.95;;;12.63;;
42146;SDS011;27815;43.410;11.852;2022-10-22T19:11:17;13.55;;;11.90;;
42146;SDS011;27815;43.410;11.852;2022-10-22T19:15:21;13.68;;;11.70;;
42146;SDS011;27815;43.410;11.852;2022-10-22T19:19:39;13.57;;;12.23;;
42146;SDS011;27815;43.410;11.852;2022-10-22T19:25:06;15.48;;;13.80;;
42146;SDS011;27815;43.410;11.852;2022-10-22T19:29:39;15.60;;;14.07;;
42146;SDS011;27815;43.410;11.852;2022-10-22T19:34:15;15.30;;;13.88;;
42146;SDS011;27815;43.410;11.852;2022-10-22T19:38:23;17.58;;;15.52;;
42146;SDS011;27815;43.410;11.852;2022-10-22T19:42:33;14.90;;;13.60;;
42146;SDS011;27815;43.410;11.852;2022-10-22T19:46:40;17.65;;;16.05;;
42146;SDS011;27815;43.410;11.852;2022-10-22T19:50:46;17.88;;;16.17;;
42146;SDS011;27815;43.410;11.852;2022-10-22T19:54:50;15.85;;;14.45;;
42146;SDS011;27815;43.410;11.852;2022-10-22T19:58:58;19.98;;;17.92;;
42146;SDS011;27815;43.410;11.852;2022-10-22T20:03:08;19.73;;;18.02;;
42146;SDS011;27815;43.410;11.852;2022-10-22T20:07:14;18.98;;;17.38;;
42146;SDS011;27815;43.410;11.852;2022-10-22T20:11:33;18.15;;;16.65;;
42146;SDS011;27815;43.410;11.852;2022-10-22T20:15:37;19.05;;;17.33;;
42146;SDS011;27815;43.410;11.852;2022-10-22T20:19:45;17.30;;;15.77;;
42146;SDS011;27815;43.410;11.852;2022-10-22T20:23:54;17.08;;;15.30;;
42146;SDS011;27815;43.410;11.852;2022-10-22T20:28:00;13.40;;;12.10;;
42146;SDS011;27815;43.410;11.852;2022-10-22T20:32:11;18.15;;;16.38;;
42146;SDS011;27815;43.410;11.852;2022-10-22T20:40:35;15.80;;;14.40;;
42146;SDS011;27815;43.410;11.852;2022-10-22T20:44:53;13.98;;;11.10;;
42146;SDS011;27815;43.410;11.852;2022-10-22T20:49:16;15.93;;;14.63;;
42146;SDS011;27815;43.410;11.852;2022-10-22T20:53:34;17.02;;;15.23;;
42146;SDS011;27815;43.410;11.852;2022-10-22T20:58:06;16.55;;;14.98;;
42146;SDS011;27815;43.410;11.852;2022-10-22T21:02:40;16.43;;;14.97;;
42146;SDS011;27815;43.410;11.852;2022-10-22T21:06:47;17.00;;;15.35;;
42146;SDS011;27815;43.410;11.852;2022-10-22T21:11:06;16.27;;;14.57;;
42146;SDS011;27815;43.410;11.852;2022-10-22T21:15:09;15.98;;;14.40;;
42146;SDS011;27815;43.410;11.852;2022-10-22T21:19:16;17.05;;;15.10;;
42146;SDS011;27815;43.410;11.852;2022-10-22T21:23:23;19.85;;;15.95;;
42146;SDS011;27815;43.410;11.852;2022-10-22T21:27:27;17.17;;;15.40;;
42146;SDS011;27815;43.410;11.852;2022-10-22T21:31:40;17.88;;;15.73;;
42146;SDS011;27815;43.410;11.852;2022-10-22T21:35:52;16.90;;;15.38;;
42146;SDS011;27815;43.410;11.852;2022-10-22T21:40:01;17.40;;;15.48;;
42146;SDS011;27815;43.410;11.852;2022-10-22T21:44:09;15.15;;;11.77;;
42146;SDS011;27815;43.410;11.852;2022-10-22T21:48:12;16.25;;;14.85;;
42146;SDS011;27815;43.410;11.852;2022-10-22T21:52:16;17.98;;;14.35;;
42146;SDS011;27815;43.410;11.852;2022-10-22T21:56:21;15.98;;;14.02;;
42146;SDS011;27815;43.410;11.852;2022-10-22T22:00:28;18.95;;;16.35;;
42146;SDS011;27815;43.410;11.852;2022-10-22T22:04:31;17.05;;;15.43;;
42146;SDS011;27815;43.410;11.852;2022-10-22T22:08:35;16.52;;;14.85;;
42146;SDS011;27815;43.410;11.852;2022-10-22T22:12:39;14.75;;;13.20;;
42146;SDS011;27815;43.410;11.852;2022-10-22T22:16:47;18.10;;;16.42;;
42146;SDS011;27815;43.410;11.852;2022-10-22T22:20:52;16.77;;;15.00;;
42146;SDS011;27815;43.410;11.852;2022-10-22T22:24:56;18.15;;;16.33;;
42146;SDS011;27815;43.410;11.852;2022-10-22T22:29:03;16.15;;;14.52;;
42146;SDS011;27815;43.410;11.852;2022-10-22T22:33:29;17.25;;;15.68;;
42146;SDS011;27815;43.410;11.852;2022-10-22T22:44:06;14.57;;;13.27;;
42146;SDS011;27815;43.410;11.852;2022-10-22T22:48:36;14.68;;;13.45;;
42146;SDS011;27815;43.410;11.852;2022-10-22T22:58:11;20.33;;;18.45;;
42146;SDS011;27815;43.410;11.852;2022-10-22T23:03:22;19.70;;;17.77;;
42146;SDS011;27815;43.410;11.852;2022-10-22T23:08:08;18.10;;;16.45;;
42146;SDS011;27815;43.410;11.852;2022-10-22T23:13:18;20.50;;;18.35;;
42146;SDS011;27815;43.410;11.852;2022-10-22T23:17:57;19.48;;;16.90;;
42146;SDS011;27815;43.410;11.852;2022-10-22T23:23:08;19.70;;;17.63;;
42146;SDS011;27815;43.410;11.852;2022-10-22T23:28:07;18.67;;;16.58;;
42146;SDS011;27815;43.410;11.852;2022-10-22T23:33:39;19.90;;;16.98;;
42146;SDS011;27815;43.410;11.852;2022-10-22T23:37:45;17.33;;;13.43;;
42146;SDS011;27815;43.410;11.852;2022-10-22T23:43:48;17.03;;;15.17;;
42146;SDS011;27815;43.410;11.852;2022-10-22T23:49:17;18.52;;;14.90;;
42146;SDS011;27815;43.410;11.852;2022-10-22T23:54:47;19.05;;;14.80;;
